Stamford, NY

12:15 PM EST on January 29, 2015 (GMT -0500)
Albany International | Change Station
CLOSE
Current Station
Airport
Location: Albany,
Elevation: 292 ft
Nearby Weather Stations

Elev 292 ft 42.75 °N, 73.80 °W | Updated 24 minutes ago

Partly Cloudy
Partly Cloudy
18 °F
Feels Like 11 °F
N
5
Wind Variable Wind from SSE

Today
High -- | Low -- °F
--% Chance of Precip.
Yesterday
High -- | Low -- °F
Precip. -- in
7:15 AM 5:08 PM
Waxing Gibbous, 75% visible
Pressure 30.26 in
Visibility 10.0 miles
Clouds Few 16000 ft
Overcast 26000 ft
Windchill 11 °F
Dew Point 1 °F
Humidity 48%
Rainfall 0.00 in
Snow Depth Not available.
UV 1 out of 12
Pollen .10 out of 12
Air Quality Not available.
Flu Activity Not available.
METAR KALB 291651Z 15004KT 10SM FEW160 OVC260 M08/M17 A3024 RMK AO2 SLP246 BINOVC T10781172

More Conditions Fewer Conditions

Pressure 30.26 in
Visibility 10.0 miles
Clouds Few 16000 ft
Overcast 26000 ft
Windchill 11 °F
Dew Point 1 °F
Humidity 48%
Rainfall 0.00 in
Snow Depth Not available.
UV 1 out of 12
Pollen .10 out of 12
Air Quality Not available.
Flu Activity Not available.
METAR KALB 291651Z 15004KT 10SM FEW160 OVC260 M08/M17 A3024 RMK AO2 SLP246 BINOVC T10781172

More Conditions Fewer Conditions

10-Day Weather Forecast

Almanac

Astronomy

Jan. 29, 2015 Rise Set
Actual Time
Civil Twilight
Nautical Twilight
Astronomical Twilight
Moon
Length of Visible Light
Length of Day
Tomorrow will be .
, % of the Moon is Illuminated

Today's Extremes

State Highs State Lows

Community

WunderPhotos

Upload Photos

1,791,480 photos uploaded!

WunderBlogs® & News

Nearby

Air Quality

  Air Quality AQ Index Pollutant
Not available.

Snow Depth

Station Depth Elevation

Earthquake Activity

City Distance Mag. Time & Date
Minimum magnitude displayed is 2.5.

Coastal Water Temperatures

Place Temperature

Nearby Weather Stations